Skip Navigation Links
NOAA logo - Click to go to the NOAA homepage
NOAA's National Weather Service
Alaska Aviation Weather Unit
  NWS logo - Click to go to the NWS homepage
Left Navbar Graphic     19 AKDT = 03 GMT

   
NOAA is celebrating 200 years of science, service, and stewardship. Visit the NOAA 200th celebration Web site to learn more.
USA.gov is the U.S. Government's official Web portal to all Federal, state and local government Web resources and services.
Facebook
NWS on Facebook

Important Change Regarding the AAWU Web Presence

 

Over the last several months, the AAWU has been working to navigate its webpages to a nationally supported server. Security, as well as other needs, have necessitated the change.  We have been given an extension for the site changeover while we diligently work at addressing feedback received. As of July 14, 2017, aawu.arh.noaa.gov will be discontinued. The new AAWU web address is weather.gov/aawu. It is now live and will run in-parallel with the old site until it is discontinued on July 14, 2017. Please continue to send any feedback or questions regarding the new webpages to nws.ar.aawu.webauthors@noaa.gov.  Thank you for your patience during this time of transition.
AAWU Home :: Display TAF Add Bookmark
TAF PAGA 282331Z 2900/2924 21012KT P6SM VCSH SCT045 OVC060=
METAR PAGA 282156Z AUTO 18007KT 10SM OVC048 16/08 A2984=

METAR PAGA 282256Z AUTO 21012KT 10SM SCT047 OVC060 16/08 A2985=

METAR PAGA 282356Z AUTO 18008KT 10SM FEW095 16/08 A2986=

METAR PAGA 290056Z AUTO 18007KT 10SM SCT048 BKN070 OVC085 17/08
     A2985=

METAR PAGA 290156Z AUTO 24008KT 10SM FEW044 OVC055 17/08 A2985=

METAR PAGA 290256Z AUTO 15005KT 10SM SCT060 OVC080 17/08 A2985=


NOAA's National Weather Service
Alaska Aviation Weather Unit
6930 Sand Lake Road
Anchorage, AK 99502-1845
Disclaimer
Credits
Glossary
Privacy Policy
About Us
Career Opportunities
Contact AAWU Internet Services Site last modified: April, 17th 2012